Time;durP1;ratioP1;P1;durP2;ratioP2;P2;SDS_P1;SDS_P2;PMS_P1;PMS_P2;Temp;Humidity;BMP_temperature;BMP_pressure;BME280_temperature;BME280_humidity;BME280_pressure;Samples;Min_cycle;Max_cycle;Signal;HPM_P1;HPM_P2
2022/12/11 00:01:50;;;;;;;;;;;18.30;59.50;;;;;;5046407;28;1172;-68
2022/12/11 00:04:15;;;;;;;;;;;18.30;59.50;;;;;;5043856;28;765;-68
2022/12/11 00:06:41;;;;;;;;;;;18.30;59.50;;;;;;5042207;28;916;-68
2022/12/11 00:09:06;;;;;;;;;;;18.30;59.50;;;;;;5051385;28;1991;-68
2022/12/11 00:11:32;;;;;;;;;;;18.30;59.60;;;;;;5034243;28;1337;-68
2022/12/11 00:13:58;;;;;;;;;;;18.30;59.60;;;;;;5033725;28;1177;-68
2022/12/11 00:16:23;;;;;;;;;;;18.30;59.60;;;;;;5045028;28;1064;-68
2022/12/11 00:18:48;;;;;;;;;;;18.30;59.60;;;;;;5045166;28;838;-68
2022/12/11 00:21:14;;;;;;;;;;;18.30;59.60;;;;;;5043133;28;1366;-68
2022/12/11 00:23:40;;;;;;;;;;;18.30;59.60;;;;;;5048432;28;862;-68
2022/12/11 00:26:08;;;;;;;;;;;18.30;59.60;;;;;;5050206;28;908;-68
2022/12/11 00:28:34;;;;;;;;;;;18.30;59.60;;;;;;5046510;28;1918;-68
2022/12/11 00:31:03;;;;;;;;;;;18.30;59.60;;;;;;5042283;28;1311;-68
2022/12/11 00:33:29;;;;;;;;;;;18.30;59.60;;;;;;5048077;28;809;-68
2022/12/11 00:35:54;;;;;;;;;;;18.30;59.60;;;;;;5049576;28;816;-68
2022/12/11 00:38:20;;;;;;;;;;;18.30;59.60;;;;;;5044198;28;946;-67
2022/12/11 00:40:45;;;;;;;;;;;18.30;59.60;;;;;;5046952;28;1257;-67
2022/12/11 00:43:11;;;;;;;;;;;18.30;59.60;;;;;;5031773;28;884;-67
2022/12/11 00:45:40;;;;;;;;;;;18.30;59.60;;;;;;5048972;28;878;-67
2022/12/11 00:48:05;;;;;;;;;;;18.30;59.70;;;;;;5047886;28;1898;-67
2022/12/11 00:50:31;;;;;;;;;;;18.30;59.70;;;;;;5026565;28;1335;-67
2022/12/11 00:52:56;;;;;;;;;;;18.20;59.70;;;;;;5049978;28;1432;-68
2022/12/11 00:55:22;;;;;;;;;;;18.30;59.70;;;;;;5046440;28;1547;-69
2022/12/11 00:57:50;;;;;;;;;;;18.30;59.70;;;;;;5048854;28;831;-69
2022/12/11 01:00:15;;;;;;;;;;;18.20;59.70;;;;;;5041505;28;1343;-69
2022/12/11 01:02:41;;;;;;;;;;;18.20;59.70;;;;;;5031141;28;1281;-69
2022/12/11 01:05:08;;;;;;;;;;;18.20;59.70;;;;;;5047807;28;1113;-69
2022/12/11 01:07:33;;;;;;;;;;;18.20;59.70;;;;;;5031733;28;1879;-69
2022/12/11 01:12:42;;;;;;;;;;;18.20;59.70;;;;;;5046593;28;899;-68
2022/12/11 01:15:08;;;;;;;;;;;18.20;59.70;;;;;;5041872;28;1294;-68
2022/12/11 01:17:33;;;;;;;;;;;18.20;59.70;;;;;;5045258;28;895;-68
2022/12/11 01:19:59;;;;;;;;;;;18.20;59.70;;;;;;5044527;28;1382;-68
2022/12/11 01:22:24;;;;;;;;;;;18.20;59.80;;;;;;5044463;28;864;-68
2022/12/11 01:24:50;;;;;;;;;;;18.20;59.80;;;;;;5049549;28;892;-68
2022/12/11 01:27:15;;;;;;;;;;;18.20;59.80;;;;;;5036522;28;1173;-68
2022/12/11 01:29:41;;;;;;;;;;;18.20;59.80;;;;;;5043869;28;5153;-68
2022/12/11 01:32:06;;;;;;;;;;;18.20;59.70;;;;;;5046581;28;763;-69
2022/12/11 01:34:32;;;;;;;;;;;18.20;59.80;;;;;;5045819;28;916;-69
2022/12/11 01:36:57;;;;;;;;;;;18.20;59.80;;;;;;5043862;28;840;-69
2022/12/11 01:39:23;;;;;;;;;;;18.20;59.80;;;;;;5024853;28;1276;-68
2022/12/11 01:41:48;;;;;;;;;;;18.20;60.50;;;;;;5048208;28;1071;-69
2022/12/11 01:44:14;;;;;;;;;;;18.20;59.80;;;;;;5051605;28;998;-68
2022/12/11 01:46:39;;;;;;;;;;;18.20;59.80;;;;;;5043688;28;1292;-69
2022/12/11 01:49:06;;;;;;;;;;;18.20;59.80;;;;;;5027229;28;1906;-69
2022/12/11 01:51:32;;;;;;;;;;;18.20;59.80;;;;;;5017291;28;1456;-69
2022/12/11 01:54:06;;;;;;;;;;;18.20;59.80;;;;;;5032792;28;801;-68
2022/12/11 01:56:31;;;;;;;;;;;18.20;59.80;;;;;;5046949;28;862;-67
2022/12/11 01:58:59;;;;;;;;;;;18.20;59.90;;;;;;5042571;28;1352;-68
2022/12/11 02:01:49;;;;;;;;;;;18.20;59.80;;;;;;5041467;28;1345;-68
2022/12/11 02:04:14;;;;;;;;;;;18.20;59.90;;;;;;5036288;28;1216;-68
2022/12/11 02:06:41;;;;;;;;;;;18.20;59.90;;;;;;5035632;28;826;-68
2022/12/11 02:09:07;;;;;;;;;;;18.20;59.90;;;;;;5029926;28;1965;-68
2022/12/11 02:11:43;;;;;;;;;;;18.20;59.90;;;;;;5031535;28;1366;-68
2022/12/11 02:14:14;;;;;;;;;;;18.20;59.90;;;;;;5043395;28;1291;-68
2022/12/11 02:16:43;;;;;;;;;;;18.20;59.90;;;;;;5026111;28;1446;-68
2022/12/11 02:19:08;;;;;;;;;;;18.20;59.90;;;;;;5048418;28;875;-68
2022/12/11 02:21:36;;;;;;;;;;;18.20;59.90;;;;;;5050969;28;1280;-68
2022/12/11 02:24:20;;;;;;;;;;;18.20;59.90;;;;;;5050225;28;869;-68
2022/12/11 02:26:57;;;;;;;;;;;18.20;59.90;;;;;;5047887;28;854;-68
2022/12/11 02:29:29;;;;;;;;;;;18.20;59.90;;;;;;5051577;28;1914;-68
2022/12/11 02:32:04;;;;;;;;;;;18.20;59.90;;;;;;5058011;28;1025;-68
2022/12/11 02:34:33;;;;;;;;;;;18.20;59.90;;;;;;5055996;28;915;-68
2022/12/11 02:37:00;;;;;;;;;;;18.20;59.90;;;;;;5043326;28;895;-68
2022/12/11 02:39:26;;;;;;;;;;;18.20;59.90;;;;;;5045192;28;1288;-68
2022/12/11 02:41:51;;;;;;;;;;;18.20;60.70;;;;;;5052201;28;908;-68
2022/12/11 02:44:21;;;;;;;;;;;18.10;59.90;;;;;;5050925;28;891;-68
2022/12/11 02:46:46;;;;;;;;;;;18.20;59.90;;;;;;5035211;28;834;-68
2022/12/11 02:49:12;;;;;;;;;;;18.10;59.90;;;;;;5053168;28;1902;-68
2022/12/11 02:51:38;;;;;;;;;;;18.10;59.90;;;;;;5046794;28;1241;-67
2022/12/11 02:54:04;;;;;;;;;;;18.10;59.90;;;;;;5048445;28;1026;-68
2022/12/11 02:56:37;;;;;;;;;;;18.10;59.90;;;;;;5047251;28;1015;-68
2022/12/11 02:59:08;;;;;;;;;;;18.10;59.90;;;;;;5028972;28;892;-68
2022/12/11 03:01:33;;;;;;;;;;;18.10;59.90;;;;;;5030901;28;1330;-69
2022/12/11 03:03:59;;;;;;;;;;;18.10;59.90;;;;;;5048563;28;960;-68
2022/12/11 03:06:26;;;;;;;;;;;18.20;60.00;;;;;;5033215;28;887;-68
2022/12/11 03:08:52;;;;;;;;;;;18.10;59.90;;;;;;5048805;28;1901;-69
2022/12/11 03:11:17;;;;;;;;;;;18.10;59.90;;;;;;5046018;28;1254;-67
2022/12/11 03:13:43;;;;;;;;;;;18.10;59.90;;;;;;5048930;28;1373;-68
2022/12/11 03:16:08;;;;;;;;;;;18.10;59.90;;;;;;5046456;28;790;-67
2022/12/11 03:18:52;;;;;;;;;;;18.10;59.90;;;;;;5034054;28;1307;-68
2022/12/11 03:21:23;;;;;;;;;;;18.10;59.90;;;;;;5045859;28;1267;-67
2022/12/11 03:23:50;;;;;;;;;;;18.10;59.90;;;;;;5051747;28;892;-67
2022/12/11 03:26:16;;;;;;;;;;;18.10;59.90;;;;;;5053747;28;873;-67
2022/12/11 03:28:46;;;;;;;;;;;18.10;59.90;;;;;;5033818;28;1909;-68
2022/12/11 03:31:13;;;;;;;;;;;18.10;59.90;;;;;;5028372;28;1300;-68
2022/12/11 03:33:39;;;;;;;;;;;18.10;59.90;;;;;;5027709;28;825;-68
2022/12/11 03:36:06;;;;;;;;;;;18.10;59.90;;;;;;5015740;28;848;-68
2022/12/11 03:38:36;;;;;;;;;;;18.10;59.90;;;;;;5027275;28;1210;-68
2022/12/11 03:41:01;;;;;;;;;;;18.20;59.90;;;;;;5029067;28;1304;-67
2022/12/11 03:43:27;;;;;;;;;;;18.10;59.90;;;;;;5045374;28;870;-67
2022/12/11 03:45:53;;;;;;;;;;;18.20;59.90;;;;;;5047070;28;1154;-67
2022/12/11 03:48:18;;;;;;;;;;;18.10;59.80;;;;;;5018816;28;1888;-68
2022/12/11 03:50:44;;;;;;;;;;;18.20;59.90;;;;;;5017309;28;1374;-68
2022/12/11 03:53:09;;;;;;;;;;;18.20;59.90;;;;;;5046755;28;954;-68
2022/12/11 03:55:35;;;;;;;;;;;18.20;59.90;;;;;;5046592;28;1007;-69
2022/12/11 03:58:00;;;;;;;;;;;18.20;59.80;;;;;;5034002;28;999;-69
2022/12/11 04:00:26;;;;;;;;;;;18.20;59.80;;;;;;5055599;28;1301;-69
2022/12/11 04:05:35;;;;;;;;;;;18.20;59.90;;;;;;5049741;28;858;-67
2022/12/11 04:08:01;;;;;;;;;;;18.20;59.80;;;;;;5049951;28;1919;-67
2022/12/11 04:10:26;;;;;;;;;;;18.20;59.90;;;;;;5047307;28;1317;-67
2022/12/11 04:12:52;;;;;;;;;;;18.10;59.80;;;;;;5028708;28;1304;-67
2022/12/11 04:15:17;;;;;;;;;;;18.20;59.80;;;;;;5043496;28;1311;-67
2022/12/11 04:26:06;;;;;;;;;;;18.20;59.90;;;;;;5047657;28;775;-67
2022/12/11 04:28:32;;;;;;;;;;;18.20;59.80;;;;;;5046573;28;1969;-68
2022/12/11 04:30:57;;;;;;;;;;;18.20;59.90;;;;;;5048344;28;1300;-67
2022/12/11 04:33:23;;;;;;;;;;;18.10;59.80;;;;;;5032722;28;1318;-68
2022/12/11 04:35:48;;;;;;;;;;;18.10;59.80;;;;;;5045002;28;776;-68
2022/12/11 04:38:14;;;;;;;;;;;18.10;59.80;;;;;;5047829;28;879;-68
2022/12/11 04:40:39;;;;;;;;;;;18.10;59.90;;;;;;5045201;28;1294;-68
2022/12/11 04:43:05;;;;;;;;;;;18.10;59.90;;;;;;5030727;28;1315;-68
2022/12/11 04:45:30;;;;;;;;;;;18.10;59.80;;;;;;5029408;28;1021;-68
2022/12/11 04:47:55;;;;;;;;;;;18.10;59.80;;;;;;5046758;28;1889;-67
2022/12/11 04:50:21;;;;;;;;;;;18.10;59.90;;;;;;5040334;28;1276;-67
2022/12/11 04:52:46;;;;;;;;;;;18.10;59.90;;;;;;5042473;28;1057;-68
2022/12/11 04:55:12;;;;;;;;;;;18.10;59.90;;;;;;5047347;28;1045;-68
2022/12/11 04:57:37;;;;;;;;;;;18.10;59.90;;;;;;5042310;28;828;-68
2022/12/11 05:00:04;;;;;;;;;;;18.10;59.90;;;;;;5046271;28;1362;-68
2022/12/11 05:02:32;;;;;;;;;;;18.10;59.90;;;;;;5032521;28;890;-68
2022/12/11 05:04:58;;;;;;;;;;;18.10;59.90;;;;;;5048859;28;1536;-69
2022/12/11 05:07:23;;;;;;;;;;;18.10;59.90;;;;;;5042504;28;1019;-68
2022/12/11 05:09:49;;;;;;;;;;;18.10;59.90;;;;;;5048011;28;1909;-67
2022/12/11 05:12:14;;;;;;;;;;;18.10;59.90;;;;;;5041809;28;891;-69
2022/12/11 05:14:39;;;;;;;;;;;18.10;59.90;;;;;;5043329;28;1310;-70
2022/12/11 05:17:05;;;;;;;;;;;18.20;59.90;;;;;;5047245;28;875;-68
2022/12/11 05:19:30;;;;;;;;;;;18.20;59.80;;;;;;5045360;28;1304;-69
2022/12/11 05:21:56;;;;;;;;;;;18.20;59.70;;;;;;5033194;28;891;-69
2022/12/11 05:24:21;;;;;;;;;;;18.20;59.70;;;;;;5047081;28;959;-68
2022/12/11 05:26:47;;;;;;;;;;;18.20;59.60;;;;;;5049292;28;966;-69
2022/12/11 05:29:12;;;;;;;;;;;18.30;59.60;;;;;;5048415;28;1902;-68
2022/12/11 05:31:38;;;;;;;;;;;18.30;59.50;;;;;;5028626;28;1343;-69
2022/12/11 05:34:03;;;;;;;;;;;18.30;59.40;;;;;;5031490;28;1841;-71
2022/12/11 05:36:30;;;;;;;;;;;18.40;59.40;;;;;;5042777;28;1166;-70
2022/12/11 05:38:55;;;;;;;;;;;18.30;59.80;;;;;;5026440;28;2323;-70
2022/12/11 05:41:22;;;;;;;;;;;18.40;59.20;;;;;;5048863;28;1360;-70
2022/12/11 05:43:47;;;;;;;;;;;18.40;59.40;;;;;;5032690;28;1369;-71
2022/12/11 05:46:13;;;;;;;;;;;18.40;59.10;;;;;;5047340;28;905;-70
2022/12/11 05:48:38;;;;;;;;;;;18.40;59.10;;;;;;5054571;28;1940;-70
2022/12/11 05:51:04;;;;;;;;;;;18.40;59.00;;;;;;5046349;28;1288;-70
2022/12/11 05:53:29;;;;;;;;;;;18.50;59.00;;;;;;5047216;28;879;-70
2022/12/11 05:55:59;;;;;;;;;;;18.50;59.00;;;;;;5035983;28;886;-70
2022/12/11 05:58:25;;;;;;;;;;;18.50;59.00;;;;;;5051639;28;891;-69
2022/12/11 06:00:50;;;;;;;;;;;18.50;58.90;;;;;;5051749;28;1383;-69
2022/12/11 06:03:16;;;;;;;;;;;18.50;58.90;;;;;;5035615;28;906;-69
2022/12/11 06:05:41;;;;;;;;;;;18.50;58.80;;;;;;5047970;28;2110;-70
2022/12/11 06:08:07;;;;;;;;;;;18.50;58.80;;;;;;5034614;28;1906;-69
2022/12/11 06:10:32;;;;;;;;;;;18.50;58.80;;;;;;5033405;28;1461;-70
2022/12/11 06:12:58;;;;;;;;;;;18.50;58.80;;;;;;5050796;28;1340;-67
2022/12/11 06:15:23;;;;;;;;;;;18.50;58.70;;;;;;5045973;28;1016;-68
2022/12/11 06:17:49;;;;;;;;;;;18.50;58.70;;;;;;5049674;28;773;-68
2022/12/11 06:20:14;;;;;;;;;;;18.60;58.70;;;;;;5047862;28;1319;-67
2022/12/11 06:22:40;;;;;;;;;;;18.60;58.70;;;;;;5050656;28;1011;-68
2022/12/11 06:25:05;;;;;;;;;;;18.60;58.70;;;;;;5030446;28;1326;-68
2022/12/11 06:27:31;;;;;;;;;;;18.60;58.70;;;;;;5046831;28;802;-71
2022/12/11 06:29:56;;;;;;;;;;;18.60;58.70;;;;;;5029372;28;1945;-68
2022/12/11 06:32:22;;;;;;;;;;;18.60;58.70;;;;;;5048479;28;792;-68
2022/12/11 06:34:47;;;;;;;;;;;18.60;58.70;;;;;;5049417;28;860;-69
2022/12/11 06:37:13;;;;;;;;;;;18.60;58.70;;;;;;5053901;28;1010;-71
2022/12/11 06:39:38;;;;;;;;;;;18.60;58.70;;;;;;5044994;28;1356;-72
2022/12/11 06:42:04;;;;;;;;;;;18.60;58.70;;;;;;5049254;28;824;-71
2022/12/11 06:44:29;;;;;;;;;;;18.60;58.70;;;;;;5049695;28;1225;-69
2022/12/11 06:46:54;;;;;;;;;;;18.60;58.70;;;;;;5049129;28;895;-69
2022/12/11 06:49:20;;;;;;;;;;;18.60;58.70;;;;;;5047992;28;1954;-70
2022/12/11 06:51:46;;;;;;;;;;;18.60;58.70;;;;;;5048972;28;1331;-69
2022/12/11 06:54:11;;;;;;;;;;;18.60;58.70;;;;;;5047479;28;879;-70
2022/12/11 06:56:37;;;;;;;;;;;18.60;58.70;;;;;;5051019;28;1248;-70
2022/12/11 06:59:02;;;;;;;;;;;18.60;58.70;;;;;;5056013;28;789;-68
2022/12/11 07:01:27;;;;;;;;;;;18.60;58.70;;;;;;5043717;28;1279;-68
2022/12/11 07:03:53;;;;;;;;;;;18.60;58.70;;;;;;5027266;28;859;-71
2022/12/11 07:06:19;;;;;;;;;;;18.60;58.70;;;;;;5041115;28;870;-70
2022/12/11 07:08:44;;;;;;;;;;;18.50;58.70;;;;;;5048200;28;1894;-71
2022/12/11 07:11:11;;;;;;;;;;;18.50;58.70;;;;;;5032850;28;1287;-68
2022/12/11 07:13:36;;;;;;;;;;;18.50;58.80;;;;;;5048575;28;1280;-68
2022/12/11 07:16:03;;;;;;;;;;;18.50;58.80;;;;;;5047684;28;885;-68
2022/12/11 07:18:29;;;;;;;;;;;18.50;58.80;;;;;;5045545;28;824;-67
2022/12/11 07:20:56;;;;;;;;;;;18.50;58.80;;;;;;5050273;28;1286;-68
2022/12/11 07:23:22;;;;;;;;;;;18.50;58.90;;;;;;5046882;28;773;-69
2022/12/11 07:25:47;;;;;;;;;;;18.50;58.90;;;;;;5051346;28;837;-68
2022/12/11 07:28:12;;;;;;;;;;;18.50;59.00;;;;;;5047815;28;1914;-69
2022/12/11 07:30:38;;;;;;;;;;;18.50;59.00;;;;;;5045566;28;1266;-69
2022/12/11 07:33:04;;;;;;;;;;;18.50;58.90;;;;;;5046415;28;748;-70
2022/12/11 07:35:30;;;;;;;;;;;18.50;58.90;;;;;;5047798;28;1340;-71
2022/12/11 07:37:56;;;;;;;;;;;18.50;59.00;;;;;;5052424;28;888;-70
2022/12/11 07:40:21;;;;;;;;;;;18.50;59.00;;;;;;5050155;28;1409;-70
2022/12/11 07:42:47;;;;;;;;;;;18.50;59.00;;;;;;5045941;28;784;-70
2022/12/11 07:45:12;;;;;;;;;;;18.50;59.00;;;;;;5043798;28;900;-69
2022/12/11 07:47:38;;;;;;;;;;;18.40;59.00;;;;;;5010172;28;1707;-69
2022/12/11 07:50:04;;;;;;;;;;;18.40;59.00;;;;;;5047180;28;1967;-69
2022/12/11 07:52:29;;;;;;;;;;;18.50;59.10;;;;;;5053240;28;931;-69
2022/12/11 07:54:54;;;;;;;;;;;18.40;59.00;;;;;;5049805;28;946;-71
2022/12/11 07:57:20;;;;;;;;;;;18.40;59.10;;;;;;5045073;28;1460;-70
2022/12/11 07:59:45;;;;;;;;;;;18.40;59.10;;;;;;5048763;28;1319;-71
2022/12/11 08:02:11;;;;;;;;;;;18.40;59.10;;;;;;5047986;28;2045;-70
2022/12/11 08:04:36;;;;;;;;;;;18.40;59.10;;;;;;5029425;28;2057;-70
2022/12/11 08:07:02;;;;;;;;;;;18.40;59.10;;;;;;5044693;28;1880;-71
2022/12/11 08:09:27;;;;;;;;;;;18.40;59.10;;;;;;5050262;28;1922;-70
2022/12/11 08:11:53;;;;;;;;;;;18.40;59.10;;;;;;5047160;28;1837;-71
2022/12/11 08:14:18;;;;;;;;;;;18.40;59.10;;;;;;5041701;28;2016;-70
2022/12/11 08:16:44;;;;;;;;;;;18.40;59.10;;;;;;5031748;28;1236;-70
2022/12/11 08:19:10;;;;;;;;;;;18.40;59.10;;;;;;5041402;28;1445;-71
2022/12/11 08:21:36;;;;;;;;;;;18.40;59.10;;;;;;5032124;28;1378;-71
2022/12/11 08:24:01;;;;;;;;;;;18.40;59.10;;;;;;5048799;28;915;-71
2022/12/11 08:26:27;;;;;;;;;;;18.50;59.10;;;;;;5045231;28;923;-71
2022/12/11 08:28:53;;;;;;;;;;;18.50;59.00;;;;;;5046416;28;1910;-71
2022/12/11 08:31:19;;;;;;;;;;;18.50;59.00;;;;;;5050611;28;1289;-71
2022/12/11 08:33:44;;;;;;;;;;;18.50;59.00;;;;;;5046871;28;832;-72
2022/12/11 08:36:11;;;;;;;;;;;18.50;58.90;;;;;;5043960;28;808;-72
2022/12/11 08:38:36;;;;;;;;;;;18.50;58.90;;;;;;5052766;28;832;-72
2022/12/11 08:41:08;;;;;;;;;;;18.50;58.90;;;;;;5031093;28;1339;-72
2022/12/11 08:43:34;;;;;;;;;;;18.50;58.80;;;;;;5034802;28;1287;-72
2022/12/11 08:45:59;;;;;;;;;;;18.50;58.80;;;;;;5044349;28;1018;-72
2022/12/11 08:48:25;;;;;;;;;;;18.50;58.80;;;;;;5043146;28;1905;-72
2022/12/11 08:50:50;;;;;;;;;;;18.50;58.70;;;;;;5049849;28;1265;-72
2022/12/11 08:53:16;;;;;;;;;;;18.60;58.70;;;;;;5048813;28;885;-72
2022/12/11 08:55:41;;;;;;;;;;;18.60;58.70;;;;;;5049939;28;994;-72
2022/12/11 08:58:07;;;;;;;;;;;18.60;58.70;;;;;;5045048;28;877;-71
2022/12/11 09:00:32;;;;;;;;;;;18.60;58.70;;;;;;5028633;28;1287;-71
2022/12/11 09:02:57;;;;;;;;;;;18.60;58.70;;;;;;5048039;28;856;-71
2022/12/11 09:05:23;;;;;;;;;;;18.60;58.70;;;;;;5048589;28;822;-71
2022/12/11 09:07:48;;;;;;;;;;;18.60;58.60;;;;;;5045193;28;1898;-71
2022/12/11 09:10:14;;;;;;;;;;;18.60;58.60;;;;;;5049414;28;1363;-71
2022/12/11 09:12:39;;;;;;;;;;;18.60;58.60;;;;;;5047991;28;1355;-71
2022/12/11 09:15:05;;;;;;;;;;;18.70;58.60;;;;;;5044783;28;1349;-71
2022/12/11 09:17:32;;;;;;;;;;;18.60;58.50;;;;;;5048055;28;867;-71
2022/12/11 09:19:57;;;;;;;;;;;18.60;58.50;;;;;;5045684;28;1343;-71
2022/12/11 09:22:23;;;;;;;;;;;18.60;58.50;;;;;;5041787;28;1383;-71
2022/12/11 09:24:48;;;;;;;;;;;18.60;58.50;;;;;;5051709;28;950;-71
2022/12/11 09:27:14;;;;;;;;;;;18.60;58.50;;;;;;5045570;28;797;-72
2022/12/11 09:29:39;;;;;;;;;;;18.60;58.50;;;;;;5051268;28;1972;-72
2022/12/11 09:32:05;;;;;;;;;;;18.60;58.50;;;;;;5050723;28;828;-71
2022/12/11 09:34:30;;;;;;;;;;;18.70;58.50;;;;;;5050005;28;1555;-71
2022/12/11 09:36:56;;;;;;;;;;;18.60;58.50;;;;;;5043826;28;1231;-71
2022/12/11 09:39:21;;;;;;;;;;;18.60;58.50;;;;;;5047701;28;895;-71
2022/12/11 09:41:56;;;;;;;;;;;18.60;58.50;;;;;;5034375;28;1286;-71
2022/12/11 09:44:54;;;;;;;;;;;18.60;58.50;;;;;;5043922;28;1614;-71
2022/12/11 09:47:28;;;;;;;;;;;18.60;58.50;;;;;;5010352;28;1282;-71
2022/12/11 09:49:57;;;;;;;;;;;18.60;58.50;;;;;;5046927;28;1890;-71
2022/12/11 09:52:25;;;;;;;;;;;18.60;58.50;;;;;;5027143;28;933;-71
2022/12/11 09:54:55;;;;;;;;;;;18.60;58.50;;;;;;5030086;28;1030;-71
2022/12/11 09:57:23;;;;;;;;;;;18.60;58.50;;;;;;5033443;28;1025;-71
2022/12/11 10:00:03;;;;;;;;;;;18.60;58.60;;;;;;5045008;28;1275;-71
2022/12/11 10:02:45;;;;;;;;;;;18.60;58.60;;;;;;5051200;28;840;-70
2022/12/11 10:05:20;;;;;;;;;;;18.60;58.60;;;;;;5026155;28;973;-71
2022/12/11 10:08:01;;;;;;;;;;;18.60;58.60;;;;;;5045173;28;871;-72
2022/12/11 10:10:26;;;;;;;;;;;18.60;58.60;;;;;;5046897;28;1345;-71
2022/12/11 10:12:59;;;;;;;;;;;18.60;58.70;;;;;;5050284;28;891;-72
2022/12/11 10:15:28;;;;;;;;;;;18.60;58.60;;;;;;5025024;28;1043;-71
2022/12/11 10:17:54;;;;;;;;;;;18.60;58.70;;;;;;5015597;28;1218;-71
2022/12/11 10:20:32;;;;;;;;;;;18.60;58.70;;;;;;5046823;28;1355;-72
2022/12/11 10:22:57;;;;;;;;;;;18.60;59.30;;;;;;5044930;28;1408;-72
2022/12/11 10:25:27;;;;;;;;;;;18.60;58.70;;;;;;5030538;28;1437;-73
2022/12/11 10:27:52;;;;;;;;;;;18.60;58.70;;;;;;5031149;28;1922;-74
2022/12/11 10:30:19;;;;;;;;;;;18.50;58.80;;;;;;5045501;28;1342;-70
2022/12/11 10:32:49;;;;;;;;;;;18.50;58.80;;;;;;5047975;28;866;-72
2022/12/11 10:35:19;;;;;;;;;;;18.50;58.80;;;;;;5034557;28;908;-71
2022/12/11 10:37:44;;;;;;;;;;;18.50;58.80;;;;;;5047660;28;812;-71
2022/12/11 10:40:10;;;;;;;;;;;18.50;58.80;;;;;;5054177;28;1353;-72
2022/12/11 10:42:35;;;;;;;;;;;18.50;58.80;;;;;;5050120;28;800;-71
2022/12/11 10:45:02;;;;;;;;;;;18.50;58.80;;;;;;5027239;28;858;-72
2022/12/11 10:47:27;;;;;;;;;;;18.50;58.90;;;;;;5015361;28;844;-71
2022/12/11 10:49:57;;;;;;;;;;;18.50;58.90;;;;;;5052699;28;1894;-71
2022/12/11 10:52:34;;;;;;;;;;;18.50;58.90;;;;;;5039613;28;888;-72
2022/12/11 10:55:01;;;;;;;;;;;18.50;58.90;;;;;;5033538;28;1284;-71
2022/12/11 10:57:27;;;;;;;;;;;18.50;58.90;;;;;;5033688;28;1586;-70
2022/12/11 10:59:52;;;;;;;;;;;18.50;59.10;;;;;;5052417;28;1400;-72
2022/12/11 11:02:20;;;;;;;;;;;18.50;59.00;;;;;;5033461;28;1454;-69
2022/12/11 11:04:46;;;;;;;;;;;18.50;59.00;;;;;;5033513;28;1545;-72
2022/12/11 11:07:12;;;;;;;;;;;18.50;59.00;;;;;;5045958;28;1339;-72
2022/12/11 11:09:38;;;;;;;;;;;18.50;59.60;;;;;;5026047;28;1976;-71
2022/12/11 11:12:04;;;;;;;;;;;18.40;59.00;;;;;;5050685;28;1405;-70
2022/12/11 11:14:30;;;;;;;;;;;18.40;59.00;;;;;;5035322;28;1451;-74
2022/12/11 11:16:55;;;;;;;;;;;18.50;59.00;;;;;;5030082;28;1432;-72
2022/12/11 11:19:22;;;;;;;;;;;18.50;59.00;;;;;;5029864;28;1514;-74
2022/12/11 11:21:49;;;;;;;;;;;18.50;59.00;;;;;;5032943;28;1566;-72
2022/12/11 11:24:33;;;;;;;;;;;18.50;59.00;;;;;;5049288;28;1463;-71
2022/12/11 11:26:59;;;;;;;;;;;18.50;59.00;;;;;;5047712;28;1320;-72
2022/12/11 11:29:26;;;;;;;;;;;18.50;59.00;;;;;;5032435;28;2045;-70
2022/12/11 11:31:51;;;;;;;;;;;18.50;58.90;;;;;;5046590;28;1323;-71
2022/12/11 11:34:18;;;;;;;;;;;18.50;58.90;;;;;;5045905;28;841;-71
2022/12/11 11:36:43;;;;;;;;;;;18.50;58.90;;;;;;5034969;28;1287;-71
2022/12/11 11:39:13;;;;;;;;;;;18.50;58.80;;;;;;5046508;28;1473;-71
2022/12/11 11:42:01;;;;;;;;;;;18.50;58.80;;;;;;5032019;28;1957;-72
2022/12/11 11:44:34;;;;;;;;;;;18.50;58.80;;;;;;5038965;28;2081;-71
2022/12/11 11:47:19;;;;;;;;;;;18.50;58.80;;;;;;5032683;28;1295;-71
2022/12/11 11:49:47;;;;;;;;;;;18.50;58.80;;;;;;5032314;28;1902;-71
2022/12/11 11:52:27;;;;;;;;;;;18.50;58.80;;;;;;5050963;28;1089;-74
2022/12/11 11:54:56;;;;;;;;;;;18.50;58.70;;;;;;5048376;28;973;-69
2022/12/11 11:57:21;;;;;;;;;;;18.50;58.70;;;;;;5037681;28;1832;-69
2022/12/11 11:59:52;;;;;;;;;;;18.50;58.70;;;;;;5046003;28;1738;-69
2022/12/11 12:02:17;;;;;;;;;;;18.50;58.70;;;;;;5047814;28;866;-69
2022/12/11 12:04:43;;;;;;;;;;;18.50;58.70;;;;;;5047239;28;1852;-70
2022/12/11 12:07:09;;;;;;;;;;;18.50;58.70;;;;;;5047738;28;1215;-69
2022/12/11 12:09:53;;;;;;;;;;;18.50;58.70;;;;;;5048722;28;1957;-70
2022/12/11 12:12:33;;;;;;;;;;;18.60;58.70;;;;;;5048860;28;978;-70
2022/12/11 12:15:08;;;;;;;;;;;18.60;58.70;;;;;;5048788;28;1309;-70
2022/12/11 12:17:46;;;;;;;;;;;18.60;58.70;;;;;;5030195;28;903;-70
2022/12/11 12:20:24;;;;;;;;;;;18.60;58.60;;;;;;5047707;28;1372;-70
2022/12/11 12:22:49;;;;;;;;;;;18.60;58.60;;;;;;5051061;28;1003;-70
2022/12/11 12:25:21;;;;;;;;;;;18.60;58.60;;;;;;5044887;28;907;-70
2022/12/11 12:28:07;;;;;;;;;;;18.60;58.60;;;;;;5044640;28;999;-71
2022/12/11 12:30:37;;;;;;;;;;;18.60;58.60;;;;;;4997619;28;1524;-71
2022/12/11 12:33:06;;;;;;;;;;;18.60;58.60;;;;;;5030078;28;938;-71
2022/12/11 12:35:36;;;;;;;;;;;18.60;58.50;;;;;;5045235;28;934;-71
2022/12/11 12:38:15;;;;;;;;;;;18.70;58.60;;;;;;5032323;28;1297;-71
2022/12/11 12:40:49;;;;;;;;;;;18.60;58.50;;;;;;5030277;28;1244;-71
2022/12/11 12:43:33;;;;;;;;;;;18.60;58.50;;;;;;5048300;28;953;-70
2022/12/11 12:46:17;;;;;;;;;;;18.60;58.50;;;;;;5049965;28;951;-69
2022/12/11 12:48:43;;;;;;;;;;;18.60;58.50;;;;;;5044057;28;1969;-70
2022/12/11 12:51:08;;;;;;;;;;;18.60;58.50;;;;;;5008819;28;1341;-70
2022/12/11 12:53:34;;;;;;;;;;;18.60;58.40;;;;;;5031577;28;909;-70
2022/12/11 12:55:59;;;;;;;;;;;18.60;58.40;;;;;;5045479;28;1425;-70
2022/12/11 12:58:44;;;;;;;;;;;18.70;58.40;;;;;;5025511;28;1019;-71
2022/12/11 13:01:13;;;;;;;;;;;18.60;58.40;;;;;;5032506;28;1261;-70
2022/12/11 13:03:49;;;;;;;;;;;18.60;58.40;;;;;;5026869;28;951;-71
2022/12/11 13:06:15;;;;;;;;;;;18.60;58.40;;;;;;5039469;28;1690;-69
2022/12/11 13:08:47;;;;;;;;;;;18.60;58.40;;;;;;5046555;28;1969;-70
2022/12/11 13:11:14;;;;;;;;;;;18.60;58.40;;;;;;5035670;28;1261;-70
2022/12/11 13:13:40;;;;;;;;;;;18.60;58.40;;;;;;5045600;28;1153;-69
2022/12/11 13:16:14;;;;;;;;;;;18.70;58.50;;;;;;5045945;28;815;-70
2022/12/11 13:18:40;;;;;;;;;;;18.60;58.40;;;;;;5044666;28;892;-71
2022/12/11 13:21:26;;;;;;;;;;;18.60;58.40;;;;;;5031990;28;1275;-72
2022/12/11 13:23:52;;;;;;;;;;;18.60;58.40;;;;;;5031824;28;1351;-71
2022/12/11 13:26:31;;;;;;;;;;;18.60;58.50;;;;;;5032430;28;848;-73
2022/12/11 13:28:57;;;;;;;;;;;18.60;58.40;;;;;;5045332;28;1887;-72
2022/12/11 13:31:22;;;;;;;;;;;18.70;58.50;;;;;;5031032;28;1291;-72
2022/12/11 13:33:48;;;;;;;;;;;18.60;58.50;;;;;;5047216;28;840;-71
2022/12/11 13:36:17;;;;;;;;;;;18.60;58.50;;;;;;5042633;28;907;-71
2022/12/11 13:38:46;;;;;;;;;;;18.60;58.50;;;;;;5045418;28;1050;-72
2022/12/11 13:41:11;;;;;;;;;;;18.60;58.50;;;;;;5028540;28;1331;-71
2022/12/11 13:43:37;;;;;;;;;;;18.60;58.60;;;;;;5048106;28;998;-71
2022/12/11 13:46:04;;;;;;;;;;;18.60;58.50;;;;;;5030788;28;1206;-71
2022/12/11 13:48:45;;;;;;;;;;;18.60;58.50;;;;;;5048254;28;1930;-70
2022/12/11 13:51:17;;;;;;;;;;;18.60;58.50;;;;;;5042647;28;1320;-71
2022/12/11 13:53:42;;;;;;;;;;;18.60;58.50;;;;;;5042768;28;872;-71
2022/12/11 13:56:17;;;;;;;;;;;18.60;58.50;;;;;;5043728;28;1043;-71
2022/12/11 13:58:43;;;;;;;;;;;18.60;58.50;;;;;;5044735;28;859;-71
2022/12/11 14:01:10;;;;;;;;;;;18.60;58.50;;;;;;5046120;28;1292;-71
2022/12/11 14:03:37;;;;;;;;;;;18.60;58.40;;;;;;5030783;28;836;-70
2022/12/11 14:06:03;;;;;;;;;;;18.60;58.40;;;;;;5020100;28;1506;-71
2022/12/11 14:08:33;;;;;;;;;;;18.60;58.40;;;;;;5028617;28;1961;-71
2022/12/11 14:10:58;;;;;;;;;;;18.60;58.40;;;;;;5027674;28;1823;-70
2022/12/11 14:13:24;;;;;;;;;;;18.70;58.40;;;;;;5031760;28;1312;-70
2022/12/11 14:15:50;;;;;;;;;;;18.60;58.40;;;;;;5046916;28;1362;-69
2022/12/11 14:18:16;;;;;;;;;;;18.70;58.40;;;;;;5048445;28;1445;-69
2022/12/11 14:20:42;;;;;;;;;;;18.70;58.40;;;;;;5048893;28;1328;-70
2022/12/11 14:23:14;;;;;;;;;;;18.70;58.40;;;;;;5040443;28;1642;-70
2022/12/11 14:25:39;;;;;;;;;;;18.70;58.40;;;;;;5050913;28;1519;-70
2022/12/11 14:28:04;;;;;;;;;;;18.70;58.40;;;;;;5049678;28;1926;-69
2022/12/11 14:30:30;;;;;;;;;;;18.70;58.40;;;;;;5049860;28;1351;-70
2022/12/11 14:32:57;;;;;;;;;;;18.70;58.40;;;;;;5029397;28;1356;-69
2022/12/11 14:35:25;;;;;;;;;;;18.70;58.30;;;;;;5034265;28;1464;-68
2022/12/11 14:37:51;;;;;;;;;;;18.70;58.40;;;;;;5048569;28;1317;-68
2022/12/11 14:40:17;;;;;;;;;;;18.70;58.30;;;;;;5049379;28;1256;-69
2022/12/11 14:42:43;;;;;;;;;;;18.70;58.30;;;;;;5035934;28;816;-69
2022/12/11 14:45:15;;;;;;;;;;;18.70;58.30;;;;;;5034823;28;882;-69
2022/12/11 14:47:41;;;;;;;;;;;18.70;58.30;;;;;;5050812;28;912;-69
2022/12/11 14:50:07;;;;;;;;;;;18.70;58.30;;;;;;5052200;28;1967;-68
2022/12/11 14:52:35;;;;;;;;;;;18.70;58.30;;;;;;5050816;28;1172;-68